Time;durP1;ratioP1;P1;durP2;ratioP2;P2;SDS_P1;SDS_P2;PMS_P1;PMS_P2;Temp;Humidity;BMP_temperature;BMP_pressure;BME280_temperature;BME280_humidity;BME280_pressure;Samples;Min_cycle;Max_cycle;Signal;HPM_P1;HPM_P2
2023/03/08 00:00:11;;;;;;;8.57;4.78;;;;;;;5.84;50.06;98144.91;337732;29;1668;-69
2023/03/08 00:00:23;;;;;;;10.02;5.15;;;;;;;5.79;49.93;98151.97;339958;29;1088;-72
2023/03/08 00:00:35;;;;;;;9.90;5.32;;;;;;;5.74;49.66;98156.47;339450;29;1779;-72
2023/03/08 00:00:47;;;;;;;9.70;5.50;;;;;;;5.75;50.39;98150.41;340259;29;1898;-72
2023/03/08 00:00:59;;;;;;;9.60;5.47;;;;;;;5.69;50.40;98158.34;339059;29;1650;-72
2023/03/08 00:01:17;;;;;;;9.23;5.22;;;;;;;5.65;50.44;98149.06;339471;29;1016;-72
2023/03/08 00:01:29;;;;;;;9.15;5.07;;;;;;;5.69;49.83;98145.47;339045;29;2212;-72
2023/03/08 00:01:40;;;;;;;9.43;5.15;;;;;;;5.75;50.11;98135.75;339540;29;1724;-72
2023/03/08 00:01:52;;;;;;;9.60;4.93;;;;;;;5.74;49.86;98146.16;340071;28;1103;-72
2023/03/08 00:02:04;;;;;;;10.50;4.85;;;;;;;5.77;49.82;98133.13;339263;29;1681;-71
2023/03/08 00:02:17;;;;;;;9.35;4.93;;;;;;;5.80;50.14;98141.59;339743;29;1272;-72
2023/03/08 00:02:29;;;;;;;9.55;4.90;;;;;;;5.77;49.56;98143.44;339860;29;1250;-71
2023/03/08 00:02:41;;;;;;;10.38;4.90;;;;;;;5.79;50.30;98151.97;339584;29;1441;-72
2023/03/08 00:02:55;;;;;;;10.60;5.10;;;;;;;5.79;49.92;98162.28;339659;29;1429;-72
2023/03/08 00:03:12;;;;;;;9.23;5.03;;;;;;;5.75;50.46;98150.41;339165;29;1819;-74
2023/03/08 00:03:24;;;;;;;7.93;4.97;;;;;;;5.65;50.14;98149.06;339527;29;1829;-72
2023/03/08 00:03:36;;;;;;;11.10;5.00;;;;;;;5.66;50.15;98146.44;339833;29;1245;-72
2023/03/08 00:03:53;;;;;;;12.95;5.40;;;;;;;5.65;50.21;98151.63;339395;29;1550;-73
2023/03/08 00:04:05;;;;;;;11.45;5.50;;;;;;;5.66;50.04;98156.75;339206;29;1187;-72
2023/03/08 00:04:17;;;;;;;11.10;5.18;;;;;;;5.70;50.75;98139.44;339174;29;1700;-73
2023/03/08 00:04:30;;;;;;;10.25;5.03;;;;;;;5.72;50.23;98153.09;339219;29;1790;-72
2023/03/08 00:04:42;;;;;;;9.65;5.20;;;;;;;5.67;50.02;98147.25;339713;29;1257;-73
2023/03/08 00:04:54;;;;;;;8.85;5.32;;;;;;;5.63;50.20;98145.69;338372;29;1048;-74
2023/03/08 00:05:07;;;;;;;8.98;5.38;;;;;;;5.64;50.33;98142.25;338630;29;1073;-73
2023/03/08 00:05:19;;;;;;;9.40;5.63;;;;;;;5.60;50.68;98142.34;338461;29;1601;-75
2023/03/08 00:05:32;;;;;;;9.63;5.72;;;;;;;5.58;50.24;98149.28;339619;29;1834;-72
2023/03/08 00:05:44;;;;;;;9.50;5.35;;;;;;;5.56;50.11;98139.94;339706;29;1180;-75
2023/03/08 00:05:56;;;;;;;8.95;5.00;;;;;;;5.50;50.99;98146.16;339684;29;1085;-73
2023/03/08 00:06:11;;;;;;;8.80;5.13;;;;;;;5.48;51.00;98147.09;338489;29;1847;-74
2023/03/08 00:06:24;;;;;;;9.52;5.57;;;;;;;5.49;50.74;98149.59;338955;29;1812;-72
2023/03/08 00:06:36;;;;;;;10.30;5.90;;;;;;;5.50;50.69;98151.31;340806;28;1208;-72
2023/03/08 00:06:48;;;;;;;9.77;5.63;;;;;;;5.57;50.54;98147.63;340422;28;1389;-73
2023/03/08 00:07:00;;;;;;;9.45;5.40;;;;;;;5.58;50.63;98149.28;339877;29;1180;-73
2023/03/08 00:07:12;;;;;;;9.05;5.15;;;;;;;5.53;51.05;98140.91;339798;29;1306;-75
2023/03/08 00:07:26;;;;;;;8.00;4.82;;;;;;;5.45;50.54;98145.47;340474;29;1390;-72
2023/03/08 00:07:38;;;;;;;8.48;5.25;;;;;;;5.46;50.78;98142.00;340942;29;1217;-72
2023/03/08 00:07:54;;;;;;;8.55;5.40;;;;;;;5.38;51.10;98149.16;340353;28;1760;-72
2023/03/08 00:08:06;;;;;;;9.02;5.28;;;;;;;5.43;51.10;98149.81;341092;29;892;-75
2023/03/08 00:08:18;;;;;;;10.07;5.47;;;;;;;5.43;50.99;98147.25;341282;29;1185;-73
2023/03/08 00:08:30;;;;;;;9.50;5.50;;;;;;;5.45;50.58;98150.63;341071;29;1072;-74
2023/03/08 00:08:42;;;;;;;8.77;5.38;;;;;;;5.48;51.13;98142.78;340962;29;1060;-74
2023/03/08 00:08:56;;;;;;;10.93;5.47;;;;;;;5.46;51.32;98142.00;338952;29;1116;-75
2023/03/08 00:09:08;;;;;;;12.68;5.40;;;;;;;5.51;50.28;98142.66;338128;29;1924;-77
2023/03/08 00:09:20;;;;;;;11.02;5.30;;;;;;;5.46;51.04;98143.75;338930;29;1590;-73
2023/03/08 00:09:32;;;;;;;9.05;5.40;;;;;;;5.52;50.69;98139.19;339594;29;1051;-72
2023/03/08 00:09:44;;;;;;;8.73;5.28;;;;;;;5.49;50.97;98159.91;339690;29;1324;-72
2023/03/08 00:09:56;;;;;;;8.25;4.95;;;;;;;5.45;51.05;98145.47;338737;29;1598;-73
2023/03/08 00:10:09;;;;;;;8.73;5.30;;;;;;;5.42;51.21;98139.59;339473;29;1110;-72
2023/03/08 00:10:22;;;;;;;8.75;5.40;;;;;;;5.37;51.47;98152.63;339219;29;1000;-72
2023/03/08 00:10:35;;;;;;;9.25;5.20;;;;;;;5.35;50.96;98141.53;338612;29;2477;-72
2023/03/08 00:10:47;;;;;;;9.02;5.00;;;;;;;5.39;51.09;98145.69;338711;29;1603;-72
2023/03/08 00:10:59;;;;;;;9.10;5.03;;;;;;;5.50;50.62;98146.16;339781;29;1063;-72
2023/03/08 00:11:11;;;;;;;9.25;4.97;;;;;;;5.47;51.25;98153.97;339875;29;1200;-72
2023/03/08 00:11:24;;;;;;;9.85;4.85;;;;;;;5.42;50.99;98145.59;339758;29;1411;-72
2023/03/08 00:11:36;;;;;;;10.52;5.07;;;;;;;5.39;51.10;98148.25;340068;29;747;-75
2023/03/08 00:11:48;;;;;;;10.43;5.40;;;;;;;5.40;51.32;98147.38;339831;29;1342;-72
2023/03/08 00:12:00;;;;;;;10.63;5.53;;;;;;;5.37;50.92;98144.91;338969;29;1846;-73
2023/03/08 00:12:12;;;;;;;10.63;5.60;;;;;;;5.32;51.19;98147.66;339434;29;1252;-73
2023/03/08 00:12:24;;;;;;;9.48;5.40;;;;;;;5.33;51.60;98149.34;339549;29;1036;-73
2023/03/08 00:12:36;;;;;;;8.18;5.20;;;;;;;5.33;51.26;98148.47;340215;29;1142;-73
2023/03/08 00:12:48;;;;;;;9.15;5.43;;;;;;;5.39;51.47;98149.13;339452;29;1369;-74
2023/03/08 00:13:00;;;;;;;9.57;5.55;;;;;;;5.39;50.78;98154.28;338480;29;1051;-72
2023/03/08 00:13:12;;;;;;;8.90;5.32;;;;;;;5.38;51.49;98144.84;339007;29;1294;-71
2023/03/08 00:13:23;;;;;;;9.60;5.20;;;;;;;5.48;50.79;98142.78;339688;29;1766;-71
2023/03/08 00:13:36;;;;;;;10.10;5.40;;;;;;;5.50;50.37;98135.00;340728;29;1643;-72
2023/03/08 00:13:48;;;;;;;8.95;5.03;;;;;;;5.65;50.72;98138.75;340753;29;1184;-72
2023/03/08 00:14:02;;;;;;;8.80;5.05;;;;;;;5.60;49.99;98150.06;341072;29;1280;-73
2023/03/08 00:14:14;;;;;;;10.48;5.20;;;;;;;5.67;50.28;98150.69;341043;29;1031;-72
2023/03/08 00:14:25;;;;;;;11.15;5.40;;;;;;;5.68;50.60;98148.97;341310;28;1023;-72
2023/03/08 00:14:37;;;;;;;11.93;5.60;;;;;;;5.67;49.69;98147.25;340945;29;1016;-72
2023/03/08 00:14:50;;;;;;;11.30;5.57;;;;;;;5.64;50.08;98144.81;340684;29;1271;-71
2023/03/08 00:15:02;;;;;;;12.98;5.40;;;;;;;5.63;50.39;98153.44;341112;29;1217;-75
2023/03/08 00:15:14;;;;;;;12.13;5.47;;;;;;;5.65;50.84;98112.97;340850;29;1093;-74
2023/03/08 00:15:26;;;;;;;10.55;5.00;;;;;;;5.63;49.87;98145.69;339794;29;1297;-75
2023/03/08 00:15:38;;;;;;;8.98;4.97;;;;;;;5.58;50.27;98141.56;338442;29;1771;-73
2023/03/08 00:15:51;;;;;;;10.10;5.25;;;;;;;5.50;50.86;98146.16;338361;29;2131;-73
2023/03/08 00:16:06;;;;;;;9.40;5.15;;;;;;;5.45;51.01;98148.03;338960;28;1710;-71
2023/03/08 00:16:18;;;;;;;9.55;5.20;;;;;;;5.43;50.29;98144.66;338226;29;983;-74
2023/03/08 00:16:30;;;;;;;9.18;5.22;;;;;;;5.48;51.05;98147.09;338352;29;1200;-75
2023/03/08 00:16:42;;;;;;;9.73;5.00;;;;;;;5.54;50.93;98158.03;338203;29;1070;-75
2023/03/08 00:16:54;;;;;;;9.88;5.10;;;;;;;5.49;50.82;98161.66;338533;29;1043;-74
2023/03/08 00:17:06;;;;;;;8.38;5.10;;;;;;;5.54;51.00;98149.47;339248;29;1305;-76
2023/03/08 00:17:18;;;;;;;8.57;5.28;;;;;;;5.51;50.25;98147.81;339697;29;1193;-71
2023/03/08 00:17:30;;;;;;;9.77;5.47;;;;;;;5.47;50.67;98143.66;340027;29;979;-75
2023/03/08 00:17:42;;;;;;;11.20;5.50;;;;;;;5.53;50.15;98140.91;338765;29;1665;-72
2023/03/08 00:17:54;;;;;;;10.57;5.28;;;;;;;5.43;50.30;98144.66;339597;29;1319;-72
2023/03/08 00:18:06;;;;;;;8.90;5.00;;;;;;;5.43;50.98;98142.09;340162;29;1067;-72
2023/03/08 00:18:18;;;;;;;9.25;5.15;;;;;;;5.45;51.18;98137.72;339755;29;1004;-71
2023/03/08 00:18:30;;;;;;;9.25;4.97;;;;;;;5.51;50.88;98137.50;339901;29;1043;-72
2023/03/08 00:18:42;;;;;;;8.93;4.88;;;;;;;5.50;50.21;98148.72;339596;29;1227;-74
2023/03/08 00:18:54;;;;;;;9.25;5.10;;;;;;;5.58;50.64;98138.97;338687;29;1076;-76
2023/03/08 00:19:06;;;;;;;10.05;5.30;;;;;;;5.56;50.03;98145.09;338990;29;1151;-72
2023/03/08 00:19:18;;;;;;;11.80;5.50;;;;;;;5.57;50.84;98134.72;338896;29;1692;-73
2023/03/08 00:19:30;;;;;;;11.50;5.15;;;;;;;5.64;50.81;98142.25;339655;29;1669;-72
2023/03/08 00:19:43;;;;;;;8.20;4.95;;;;;;;5.63;50.51;98145.69;339969;29;1200;-72
2023/03/08 00:19:56;;;;;;;8.80;4.97;;;;;;;5.57;50.68;98142.47;338961;29;1739;-73
2023/03/08 00:20:10;;;;;;;8.80;5.18;;;;;;;5.58;50.49;98144.13;339840;29;1073;-72
2023/03/08 00:20:22;;;;;;;10.40;5.07;;;;;;;5.65;50.64;98134.44;339682;29;1555;-71
2023/03/08 00:20:33;;;;;;;9.80;4.72;;;;;;;5.62;50.17;98144.03;339742;29;1105;-72
2023/03/08 00:20:45;;;;;;;9.70;5.10;;;;;;;5.60;50.65;98141.50;339664;29;1264;-72
2023/03/08 00:21:06;;;;;;;9.38;5.43;;;;;;;5.64;50.05;98142.25;339962;29;1731;-72
2023/03/08 00:21:18;;;;;;;11.43;5.43;;;;;;;5.55;50.22;98138.25;339430;29;1640;-75
2023/03/08 00:21:30;;;;;;;10.43;5.30;;;;;;;5.57;50.96;98147.63;338892;29;1060;-75
2023/03/08 00:21:44;;;;;;;11.40;5.53;;;;;;;5.47;50.56;98146.25;338634;29;1023;-74
2023/03/08 00:21:57;;;;;;;11.13;5.60;;;;;;;5.44;50.69;98146.38;339133;29;1200;-73
2023/03/08 00:22:10;;;;;;;9.65;5.55;;;;;;;5.43;50.60;98144.66;339823;29;1019;-72
2023/03/08 00:22:22;;;;;;;8.50;5.07;;;;;;;5.44;50.86;98148.94;339694;29;1071;-72
2023/03/08 00:22:35;;;;;;;9.02;4.95;;;;;;;5.45;51.00;98148.03;339510;29;1906;-72
2023/03/08 00:22:47;;;;;;;10.05;5.15;;;;;;;5.44;50.45;98143.78;339851;29;1326;-73
2023/03/08 00:22:59;;;;;;;9.50;5.25;;;;;;;5.44;50.72;98140.38;339922;29;1187;-72
2023/03/08 00:23:11;;;;;;;10.30;5.35;;;;;;;5.49;50.75;98141.88;339688;29;1171;-72
2023/03/08 00:23:23;;;;;;;10.35;5.55;;;;;;;5.47;51.01;98146.25;340940;29;1067;-73
2023/03/08 00:23:35;;;;;;;9.73;5.43;;;;;;;5.42;50.88;98149.91;340790;29;1459;-72
2023/03/08 00:23:52;;;;;;;9.07;5.13;;;;;;;5.39;50.85;98137.94;340642;29;1176;-72
2023/03/08 00:24:04;;;;;;;9.30;5.43;;;;;;;5.38;50.50;98146.59;340903;29;1027;-72
2023/03/08 00:24:16;;;;;;;11.95;5.40;;;;;;;5.43;50.67;98149.81;340896;29;1077;-71
2023/03/08 00:24:28;;;;;;;11.60;5.20;;;;;;;5.43;50.43;98144.66;340849;29;1289;-75
2023/03/08 00:24:40;;;;;;;9.95;5.03;;;;;;;5.40;50.61;98149.94;340691;29;1110;-72
2023/03/08 00:24:52;;;;;;;8.45;5.10;;;;;;;5.34;50.39;98125.25;340817;28;1151;-75
2023/03/08 00:25:07;;;;;;;8.23;5.20;;;;;;;5.43;50.49;98139.53;340906;29;1165;-74
2023/03/08 00:25:19;;;;;;;9.10;5.47;;;;;;;5.39;51.23;98150.84;340736;29;1258;-72
2023/03/08 00:25:31;;;;;;;9.52;5.55;;;;;;;5.49;50.60;98139.28;339736;29;1067;-72
2023/03/08 00:25:43;;;;;;;9.70;5.60;;;;;;;5.46;50.95;98141.16;339900;29;1100;-72
2023/03/08 00:25:55;;;;;;;10.07;5.32;;;;;;;5.51;50.67;98141.81;339967;29;1111;-71
2023/03/08 00:26:08;;;;;;;10.13;4.97;;;;;;;5.57;50.41;98157.94;339292;29;1295;-71
2023/03/08 00:26:20;;;;;;;9.35;4.75;;;;;;;5.58;50.27;98148.44;338711;29;1020;-73
2023/03/08 00:26:32;;;;;;;9.90;4.90;;;;;;;5.60;50.65;98151.81;338052;29;2837;-74
2023/03/08 00:26:44;;;;;;;10.00;5.22;;;;;;;5.55;50.11;98149.41;340835;28;1358;-72
2023/03/08 00:26:56;;;;;;;9.38;5.45;;;;;;;5.56;50.41;98156.22;339763;29;1283;-73
2023/03/08 00:27:08;;;;;;;10.45;5.35;;;;;;;5.50;50.33;98151.31;340197;29;1023;-73
2023/03/08 00:27:20;;;;;;;10.30;5.47;;;;;;;5.43;50.87;98144.66;340195;29;1010;-73
2023/03/08 00:27:32;;;;;;;10.07;5.70;;;;;;;5.41;51.19;98151.63;340239;28;1063;-73
2023/03/08 00:27:47;;;;;;;9.38;5.72;;;;;;;5.35;50.64;98146.69;340067;29;1300;-74
2023/03/08 00:27:59;;;;;;;9.77;5.55;;;;;;;5.37;50.44;98147.47;339771;29;1197;-72
2023/03/08 00:28:11;;;;;;;8.98;5.30;;;;;;;5.50;50.53;98145.31;339107;29;1735;-72
2023/03/08 00:28:23;;;;;;;8.88;5.18;;;;;;;5.48;50.70;98153.09;339573;29;1269;-71
2023/03/08 00:28:35;;;;;;;8.50;5.00;;;;;;;5.52;50.65;98151.25;339827;29;1028;-71
2023/03/08 00:28:47;;;;;;;9.38;4.90;;;;;;;5.51;50.52;98163.28;339502;29;1292;-72
2023/03/08 00:28:59;;;;;;;9.77;4.97;;;;;;;5.49;50.87;98147.03;341054;29;1207;-72
2023/03/08 00:29:11;;;;;;;11.13;5.53;;;;;;;5.54;50.38;98150.28;340808;29;1270;-72
2023/03/08 00:29:23;;;;;;;10.60;5.38;;;;;;;5.47;50.27;98146.25;341052;29;1278;-72
2023/03/08 00:29:35;;;;;;;9.15;5.15;;;;;;;5.52;50.94;98151.25;340752;29;1058;-71
2023/03/08 00:29:47;;;;;;;8.75;5.10;;;;;;;5.54;50.92;98152.88;340858;29;1314;-72
2023/03/08 00:29:59;;;;;;;8.40;4.90;;;;;;;5.49;50.77;98159.91;340797;29;1427;-72
2023/03/08 00:30:12;;;;;;;8.95;5.05;;;;;;;5.47;50.49;98146.25;338178;29;1856;-74
2023/03/08 00:30:25;;;;;;;10.32;5.38;;;;;;;5.40;50.71;98149.94;339316;29;1797;-72
2023/03/08 00:30:37;;;;;;;11.20;5.95;;;;;;;5.37;51.47;98157.78;337862;29;1734;-73
2023/03/08 00:30:59;;;;;;;11.05;6.00;;;;;;;5.37;50.85;98145.75;339130;29;1190;-74
2023/03/08 00:31:12;;;;;;;9.15;5.30;;;;;;;5.26;50.97;98157.34;339458;29;1114;-72
2023/03/08 00:31:24;;;;;;;9.15;5.13;;;;;;;5.32;51.15;98149.38;339726;29;1126;-72
2023/03/08 00:31:37;;;;;;;9.88;5.35;;;;;;;5.30;51.93;98153.75;339318;29;1159;-73
2023/03/08 00:31:49;;;;;;;11.15;5.53;;;;;;;5.26;51.34;98152.19;339271;29;1313;-72
2023/03/08 00:32:01;;;;;;;11.43;5.70;;;;;;;5.31;51.81;98142.53;339520;29;1604;-72
2023/03/08 00:32:15;;;;;;;11.10;5.50;;;;;;;5.26;51.93;98157.34;339168;29;1652;-72
2023/03/08 00:32:27;;;;;;;9.68;5.13;;;;;;;5.40;51.04;98155.09;341440;28;1035;-72
2023/03/08 00:32:40;;;;;;;9.13;5.00;;;;;;;5.47;50.90;98166.84;341072;28;1181;-71
2023/03/08 00:32:52;;;;;;;10.70;5.07;;;;;;;5.51;50.95;98162.44;341158;28;1362;-72
2023/03/08 00:33:04;;;;;;;10.50;5.20;;;;;;;5.55;50.24;98136.53;339847;29;1258;-71
2023/03/08 00:33:16;;;;;;;11.50;5.53;;;;;;;5.50;50.35;98156.47;340686;29;1306;-72
2023/03/08 00:33:29;;;;;;;9.45;5.40;;;;;;;5.54;51.18;98146.88;340984;29;1346;-71
2023/03/08 00:33:41;;;;;;;9.18;5.45;;;;;;;5.49;51.01;98144.44;340803;28;1550;-73
2023/03/08 00:33:53;;;;;;;9.25;5.50;;;;;;;5.50;50.85;98156.47;341145;28;1591;-72
2023/03/08 00:34:05;;;;;;;9.18;5.50;;;;;;;5.49;50.55;98159.91;341997;28;1184;-71
2023/03/08 00:34:17;;;;;;;9.65;5.30;;;;;;;5.46;50.69;98160.03;341871;28;1580;-72
2023/03/08 00:34:29;;;;;;;9.85;5.30;;;;;;;5.40;50.97;98144.81;340786;29;1084;-72
2023/03/08 00:34:45;;;;;;;9.18;5.20;;;;;;;5.44;51.25;98141.22;340719;29;1242;-72
2023/03/08 00:34:57;;;;;;;9.75;5.03;;;;;;;5.54;51.36;98146.88;339502;29;1232;-73
2023/03/08 00:35:09;;;;;;;12.43;5.22;;;;;;;5.55;50.95;98151.13;338728;29;1056;-73
2023/03/08 00:35:20;;;;;;;12.23;5.30;;;;;;;5.54;50.65;98152.88;338513;29;1211;-73
2023/03/08 00:35:32;;;;;;;10.20;5.25;;;;;;;5.57;51.18;98152.78;338245;29;1032;-72
2023/03/08 00:35:54;;;;;;;10.95;5.65;;;;;;;5.45;51.11;98153.19;337941;29;1765;-73
2023/03/08 00:36:08;;;;;;;9.82;5.43;;;;;;;5.46;50.66;98160.03;337006;29;1090;-72
2023/03/08 00:36:21;;;;;;;9.35;5.30;;;;;;;5.59;51.00;98145.81;337267;29;1141;-72
2023/03/08 00:36:33;;;;;;;9.68;5.60;;;;;;;5.58;51.03;98149.28;337457;29;1631;-74
2023/03/08 00:36:45;;;;;;;9.45;5.60;;;;;;;5.54;51.06;98147.72;338294;29;1291;-73
2023/03/08 00:36:57;;;;;;;10.20;5.57;;;;;;;5.54;51.33;98152.88;338847;29;1265;-72
2023/03/08 00:37:09;;;;;;;9.68;5.47;;;;;;;5.50;51.16;98146.16;339333;29;1047;-72
2023/03/08 00:37:21;;;;;;;9.15;5.32;;;;;;;5.53;51.34;98150.34;338669;29;1633;-74
2023/03/08 00:37:33;;;;;;;8.93;5.00;;;;;;;5.49;51.20;98153.94;339787;29;1643;-72
2023/03/08 00:37:45;;;;;;;9.02;5.28;;;;;;;5.51;50.80;98152.13;340621;29;1300;-72
2023/03/08 00:37:57;;;;;;;9.85;5.40;;;;;;;5.50;50.82;98151.31;339775;29;1029;-73
2023/03/08 00:38:09;;;;;;;10.32;5.40;;;;;;;5.48;51.18;98160.81;340327;29;1243;-72
2023/03/08 00:38:20;;;;;;;10.57;5.18;;;;;;;5.39;51.53;98151.69;340892;29;1020;-72
2023/03/08 00:38:34;;;;;;;10.73;5.35;;;;;;;5.36;51.68;98154.38;340419;29;1881;-72
2023/03/08 00:38:47;;;;;;;11.40;5.60;;;;;;;5.40;51.16;98152.53;340698;29;1399;-73
2023/03/08 00:38:59;;;;;;;11.07;5.65;;;;;;;5.34;51.51;98155.31;340800;29;1076;-72
2023/03/08 00:39:13;;;;;;;9.93;5.25;;;;;;;5.42;51.18;98147.31;339264;29;1212;-73
2023/03/08 00:39:24;;;;;;;9.82;5.55;;;;;;;5.38;51.27;98147.44;338680;29;1688;-72
2023/03/08 00:39:36;;;;;;;11.05;5.50;;;;;;;5.37;51.14;98150.03;339513;29;1950;-73
2023/03/08 00:39:52;;;;;;;10.32;5.30;;;;;;;5.41;51.28;98151.63;338936;29;1270;-74
2023/03/08 00:40:05;;;;;;;11.38;5.57;;;;;;;5.47;51.24;98151.41;338405;29;1194;-72
2023/03/08 00:40:17;;;;;;;11.18;5.60;;;;;;;5.49;51.52;98159.91;338117;29;1644;-72
2023/03/08 00:40:29;;;;;;;9.23;5.55;;;;;;;5.39;51.52;98148.25;339382;29;1734;-73
2023/03/08 00:40:43;;;;;;;9.00;5.40;;;;;;;5.26;52.31;98157.34;337064;29;1729;-73
2023/03/08 00:40:55;;;;;;;8.68;5.20;;;;;;;5.28;51.38;98145.25;338719;29;1274;-74
2023/03/08 00:41:07;;;;;;;8.82;5.50;;;;;;;5.31;51.92;98145.97;338179;29;1285;-73
2023/03/08 00:41:19;;;;;;;9.65;5.72;;;;;;;5.32;51.90;98146.81;338938;29;1781;-73
2023/03/08 00:41:31;;;;;;;10.43;5.75;;;;;;;5.31;51.52;98145.13;339478;29;1464;-73
2023/03/08 00:41:43;;;;;;;11.88;5.90;;;;;;;5.33;51.81;98153.63;340114;29;1580;-72
2023/03/08 00:41:55;;;;;;;11.18;5.82;;;;;;;5.35;51.57;98151.84;340277;29;1837;-75
2023/03/08 00:42:07;;;;;;;10.30;5.78;;;;;;;5.39;51.82;98137.94;339780;29;1786;-73
2023/03/08 00:42:20;;;;;;;9.90;5.47;;;;;;;5.46;52.01;98134.28;339501;29;1308;-72
2023/03/08 00:42:32;;;;;;;9.48;5.22;;;;;;;5.54;51.45;98134.81;339647;29;1095;-72
2023/03/08 00:42:44;;;;;;;8.93;5.00;;;;;;;5.51;51.50;98142.66;338114;29;1632;-73
2023/03/08 00:42:56;;;;;;;8.68;5.22;;;;;;;5.46;51.95;98144.56;339794;29;1824;-72
2023/03/08 00:43:08;;;;;;;8.98;5.43;;;;;;;5.44;51.28;98140.38;338664;29;1768;-74
2023/03/08 00:43:20;;;;;;;9.93;5.78;;;;;;;5.33;51.93;98138.16;339198;29;1375;-74
2023/03/08 00:43:32;;;;;;;9.88;5.80;;;;;;;5.30;51.98;98146.03;339353;29;1022;-73
2023/03/08 00:43:44;;;;;;;9.82;5.68;;;;;;;5.28;51.83;98132.34;339452;29;1301;-73
2023/03/08 00:43:57;;;;;;;9.90;5.60;;;;;;;5.30;51.58;98138.28;338827;29;2421;-72
2023/03/08 00:44:09;;;;;;;9.82;5.57;;;;;;;5.30;51.54;98138.28;339275;29;1704;-73
2023/03/08 00:44:21;;;;;;;9.23;5.50;;;;;;;5.31;51.90;98140.81;339486;29;1346;-72
2023/03/08 00:44:33;;;;;;;8.23;5.20;;;;;;;5.25;52.15;98141.03;337912;29;2017;-72
2023/03/08 00:44:44;;;;;;;8.15;5.32;;;;;;;5.23;51.96;98141.97;338339;29;1737;-73
2023/03/08 00:44:56;;;;;;;9.05;5.55;;;;;;;5.33;52.26;98138.16;336412;29;1662;-74
2023/03/08 00:45:09;;;;;;;9.70;5.30;;;;;;;5.42;51.44;98132.69;336963;29;1236;-73
2023/03/08 00:45:21;;;;;;;10.35;5.43;;;;;;;5.44;51.93;98125.75;337560;29;787;-74
2023/03/08 00:45:33;;;;;;;10.35;5.70;;;;;;;5.50;51.68;98138.41;337141;29;1208;-74
2023/03/08 00:45:45;;;;;;;9.70;5.93;;;;;;;5.46;52.23;98131.69;337385;29;1274;-72
2023/03/08 00:45:59;;;;;;;10.82;5.95;;;;;;;5.44;51.67;98130.91;337982;29;1334;-75
2023/03/08 00:46:12;;;;;;;11.02;5.90;;;;;;;5.43;51.45;98131.78;338316;29;1133;-72
2023/03/08 00:46:24;;;;;;;10.55;5.95;;;;;;;5.39;51.87;98128.50;338117;29;1734;-71
2023/03/08 00:46:36;;;;;;;9.88;6.07;;;;;;;5.35;52.20;98126.94;339463;28;1095;-73
2023/03/08 00:46:48;;;;;;;10.30;6.03;;;;;;;5.29;51.87;98128.88;340091;29;1257;-74
2023/03/08 00:47:01;;;;;;;9.52;5.70;;;;;;;5.32;51.91;98136.50;338719;29;759;-72
2023/03/08 00:47:13;;;;;;;10.02;5.70;;;;;;;5.28;52.45;98132.34;337659;29;1753;-72
2023/03/08 00:47:25;;;;;;;9.38;5.32;;;;;;;5.31;51.62;98139.97;338367;29;1041;-73
2023/03/08 00:47:38;;;;;;;8.75;5.25;;;;;;;5.30;51.62;98133.97;339207;29;1734;-73
2023/03/08 00:47:50;;;;;;;7.97;5.38;;;;;;;5.27;52.12;98133.25;340321;29;1134;-74
2023/03/08 00:48:02;;;;;;;9.20;5.25;;;;;;;5.28;52.50;98130.63;338229;29;1050;-72
2023/03/08 00:48:14;;;;;;;9.27;5.32;;;;;;;5.22;52.11;98130.00;338081;29;1614;-72
2023/03/08 00:48:26;;;;;;;10.27;5.50;;;;;;;5.19;52.12;98126.63;339394;29;1729;-72
2023/03/08 00:48:38;;;;;;;9.48;5.47;;;;;;;5.22;52.39;98132.56;339491;29;1276;-72
2023/03/08 00:48:50;;;;;;;10.73;5.68;;;;;;;5.19;52.80;98131.78;339325;29;1286;-72
2023/03/08 00:49:03;;;;;;;9.23;5.60;;;;;;;5.18;51.87;98134.41;339970;29;1100;-72
2023/03/08 00:49:15;;;;;;;9.70;5.53;;;;;;;5.13;52.36;98132.00;340226;28;1788;-74
2023/03/08 00:49:27;;;;;;;10.60;5.55;;;;;;;5.14;52.41;98128.53;340308;29;1678;-73
2023/03/08 00:49:39;;;;;;;9.85;5.65;;;;;;;5.20;52.08;98130.03;339603;28;1756;-72
2023/03/08 00:49:51;;;;;;;10.23;5.60;;;;;;;5.25;52.29;98124.72;339496;29;1314;-72
2023/03/08 00:50:04;;;;;;;10.52;5.88;;;;;;;5.24;52.78;98130.78;338574;29;1696;-74
2023/03/08 00:50:16;;;;;;;9.88;5.70;;;;;;;5.23;52.29;98127.34;339022;28;1883;-72
2023/03/08 00:50:28;;;;;;;9.50;5.65;;;;;;;5.17;52.50;98127.56;339720;29;1850;-72
2023/03/08 00:50:40;;;;;;;10.27;5.53;;;;;;;5.19;52.39;98136.94;339540;29;1748;-72
2023/03/08 00:50:52;;;;;;;11.15;5.53;;;;;;;5.14;52.19;98131.09;339423;29;1270;-72
2023/03/08 00:51:04;;;;;;;11.00;5.32;;;;;;;5.13;52.27;98129.44;341131;29;1047;-72
2023/03/08 00:51:18;;;;;;;11.90;5.43;;;;;;;5.20;52.64;98128.31;339621;29;1409;-74
2023/03/08 00:51:30;;;;;;;10.45;5.40;;;;;;;5.27;52.23;98128.09;340929;29;1922;-72
2023/03/08 00:51:42;;;;;;;10.23;5.50;;;;;;;5.30;52.22;98138.28;340045;28;1742;-73
2023/03/08 00:51:54;;;;;;;10.77;5.60;;;;;;;5.29;52.59;98123.72;339889;29;1181;-72
2023/03/08 00:52:09;;;;;;;10.15;5.30;;;;;;;5.26;52.56;98129.00;339860;29;1134;-73
2023/03/08 00:52:21;;;;;;;11.43;5.93;;;;;;;5.27;52.64;98130.66;339906;29;1039;-72
2023/03/08 00:52:33;;;;;;;11.68;5.85;;;;;;;5.23;52.10;98129.09;339771;29;1721;-74
2023/03/08 00:52:45;;;;;;;11.65;5.60;;;;;;;5.25;52.14;98129.88;340158;29;1728;-72
2023/03/08 00:52:57;;;;;;;9.43;5.38;;;;;;;5.25;52.95;98129.88;340673;29;1454;-73
2023/03/08 00:53:09;;;;;;;11.35;5.65;;;;;;;5.26;52.89;98129.00;339536;29;1717;-72
2023/03/08 00:53:21;;;;;;;11.27;5.40;;;;;;;5.27;52.65;98128.09;339403;29;2087;-75
2023/03/08 00:53:33;;;;;;;11.15;5.30;;;;;;;5.29;52.46;98127.16;340009;29;1796;-73
2023/03/08 00:53:46;;;;;;;8.88;5.40;;;;;;;5.26;52.20;98121.28;340106;29;1541;-72
2023/03/08 00:53:58;;;;;;;8.65;5.55;;;;;;;5.22;52.47;98132.56;340878;29;1256;-72
2023/03/08 00:54:10;;;;;;;9.90;6.00;;;;;;;5.22;52.51;98127.44;341004;29;1067;-72
2023/03/08 00:54:22;;;;;;;10.35;5.82;;;;;;;5.22;52.89;98124.84;340772;29;1227;-72
2023/03/08 00:54:34;;;;;;;10.02;5.35;;;;;;;5.27;52.53;98128.94;340899;29;1134;-73
2023/03/08 00:54:46;;;;;;;9.30;5.18;;;;;;;5.24;52.51;98128.22;340397;29;1675;-72
2023/03/08 00:54:58;;;;;;;9.80;5.50;;;;;;;5.20;52.75;98128.31;339600;29;1214;-72
2023/03/08 00:55:10;;;;;;;10.52;5.60;;;;;;;5.23;52.74;98122.19;338544;29;1106;-73
2023/03/08 00:55:21;;;;;;;10.15;5.40;;;;;;;5.17;52.71;98125.84;339157;29;1534;-73
2023/03/08 00:55:34;;;;;;;10.25;5.43;;;;;;;5.21;52.84;98134.28;341228;29;1121;-73
2023/03/08 00:55:54;;;;;;;10.75;5.45;;;;;;;5.15;52.64;98131.94;339073;29;1874;-72
2023/03/08 00:56:06;;;;;;;9.55;5.60;;;;;;;5.09;53.03;98135.59;339411;29;1275;-73
2023/03/08 00:56:18;;;;;;;9.35;5.35;;;;;;;5.15;52.52;98130.22;339474;29;1238;-72
2023/03/08 00:56:30;;;;;;;10.03;5.33;;;;;;;5.12;53.09;98129.47;339106;29;1135;-73
2023/03/08 00:56:42;;;;;;;11.35;5.60;;;;;;;5.12;52.66;98130.31;339345;29;1082;-72
2023/03/08 00:56:54;;;;;;;11.88;5.80;;;;;;;5.12;53.01;98126.91;338869;29;1684;-74
2023/03/08 00:57:06;;;;;;;10.73;5.60;;;;;;;5.09;52.97;98130.44;339519;29;1040;-73
2023/03/08 00:57:18;;;;;;;10.75;5.60;;;;;;;5.05;53.10;98128.84;339725;29;1043;-72
2023/03/08 00:57:32;;;;;;;10.55;5.60;;;;;;;5.06;53.11;98129.69;339438;29;1586;-75
2023/03/08 00:57:43;;;;;;;11.32;5.80;;;;;;;5.04;52.87;98132.31;339709;29;1279;-75
2023/03/08 00:57:55;;;;;;;11.57;5.70;;;;;;;5.05;53.16;98123.72;338495;29;1059;-73
2023/03/08 00:58:08;;;;;;;11.27;5.72;;;;;;;5.03;52.97;98130.66;339275;29;1808;-72
2023/03/08 00:58:20;;;;;;;11.88;5.70;;;;;;;5.04;53.79;98131.47;339854;29;1161;-72
2023/03/08 00:58:32;;;;;;;11.10;5.80;;;;;;;5.04;53.22;98132.31;339737;29;1178;-72
2023/03/08 00:58:44;;;;;;;10.75;5.72;;;;;;;5.07;53.53;98127.06;339501;29;1196;-72
2023/03/08 00:58:56;;;;;;;10.88;5.50;;;;;;;4.98;53.32;98132.53;339257;29;1999;-72
2023/03/08 00:59:08;;;;;;;11.85;5.80;;;;;;;4.96;53.42;98129.16;339511;29;1866;-75
2023/03/08 00:59:20;;;;;;;12.07;5.93;;;;;;;4.97;53.38;98133.41;340354;29;1605;-71
2023/03/08 00:59:32;;;;;;;10.45;5.55;;;;;;;4.99;53.24;98123.94;340102;29;1762;-72
2023/03/08 00:59:44;;;;;;;9.98;5.30;;;;;;;5.01;54.10;98132.44;338011;29;1348;-72
2023/03/08 00:59:56;;;;;;;10.77;5.30;;;;;;;5.02;53.60;98126.38;339453;29;1024;-72
2023/03/08 01:00:11;;;;;;;11.02;5.40;;;;;;;5.06;53.92;98125.38;339145;29;1184;-72
2023/03/08 01:00:23;;;;;;;9.73;5.63;;;;;;;5.13;53.49;98124.28;338218;29;1028;-72
2023/03/08 01:00:38;;;;;;;9.45;5.82;;;;;;;5.16;53.33;98126.72;338601;29;1573;-72
2023/03/08 01:00:51;;;;;;;10.40;5.90;;;;;;;5.12;53.36;98122.59;338995;29;1489;-72